Time;durP1;ratioP1;P1;durP2;ratioP2;P2;SDS_P1;SDS_P2;PMS_P1;PMS_P2;Temp;Humidity;BMP_temperature;BMP_pressure;BME280_temperature;BME280_humidity;BME280_pressure;Samples;Min_cycle;Max_cycle;Signal;HPM_P1;HPM_P2
2023/04/29 00:01:36;;;;;;;0.70;0.47;;;14.50;99.90;;;;;;5115546;28;20563;-58
2023/04/29 00:04:03;;;;;;;0.70;0.50;;;14.50;99.90;;;;;;5115929;28;20423;-59
2023/04/29 00:06:30;;;;;;;0.80;0.50;;;14.50;99.90;;;;;;5115061;28;20428;-59
2023/04/29 00:08:57;;;;;;;1.00;0.60;;;14.50;99.90;;;;;;5115882;28;20820;-58
2023/04/29 00:11:24;;;;;;;0.90;0.50;;;14.50;99.90;;;;;;5115998;28;20424;-58
2023/04/29 00:13:51;;;;;;;0.80;0.60;;;14.50;99.90;;;;;;5115084;28;20417;-57
2023/04/29 00:16:18;;;;;;;0.60;0.40;;;14.40;99.90;;;;;;5115397;28;20424;-58
2023/04/29 00:18:46;;;;;;;0.70;0.50;;;14.40;99.90;;;;;;5116786;28;20417;-58
2023/04/29 00:21:13;;;;;;;0.80;0.50;;;14.40;99.90;;;;;;5116800;28;20876;-59
2023/04/29 00:23:40;;;;;;;0.70;0.50;;;14.40;99.90;;;;;;5116356;28;20419;-58
2023/04/29 00:26:07;;;;;;;1.30;0.50;;;14.40;99.90;;;;;;5115921;28;20855;-58
2023/04/29 00:28:34;;;;;;;0.70;0.50;;;14.30;99.90;;;;;;5115832;28;20500;-58
2023/04/29 00:31:02;;;;;;;1.10;0.50;;;14.30;99.90;;;;;;5116288;28;20420;-57
2023/04/29 00:33:28;;;;;;;0.70;0.50;;;14.30;99.90;;;;;;5116542;28;20423;-59
2023/04/29 00:35:57;;;;;;;0.70;0.50;;;14.30;99.90;;;;;;5116268;28;20420;-57
2023/04/29 00:38:24;;;;;;;0.88;0.50;;;14.30;99.90;;;;;;5116056;28;20851;-59
2023/04/29 00:40:51;;;;;;;0.65;0.50;;;14.30;99.90;;;;;;5116418;28;20477;-56
2023/04/29 00:43:18;;;;;;;2.08;0.55;;;14.30;99.90;;;;;;5116038;28;20420;-60
2023/04/29 00:45:45;;;;;;;1.00;0.50;;;14.30;99.90;;;;;;5115246;28;20436;-58
2023/04/29 00:48:14;;;;;;;0.60;0.40;;;14.30;99.90;;;;;;5116593;28;20416;-58
2023/04/29 00:50:41;;;;;;;1.20;0.40;;;14.40;99.90;;;;;;5116583;28;20773;-58
2023/04/29 00:53:11;;;;;;;0.90;0.50;;;14.40;99.90;;;;;;5115569;28;20419;-57
2023/04/29 00:55:39;;;;;;;0.60;0.50;;;14.40;99.90;;;;;;5115834;28;20904;-58
2023/04/29 00:58:06;;;;;;;1.30;0.40;;;14.50;99.90;;;;;;5115844;28;20416;-58
2023/04/29 01:00:33;;;;;;;0.70;0.45;;;14.50;99.90;;;;;;5116108;28;20428;-58
2023/04/29 01:03:00;;;;;;;0.70;0.50;;;14.40;99.90;;;;;;5116502;28;20419;-54
2023/04/29 01:05:27;;;;;;;0.70;0.47;;;14.40;99.90;;;;;;5115555;28;20433;-57
2023/04/29 01:08:05;;;;;;;0.60;0.50;;;14.40;99.90;;;;;;5114847;28;20488;-58
2023/04/29 01:10:39;;;;;;;0.70;0.50;;;14.40;99.90;;;;;;5115179;28;20435;-58
2023/04/29 01:13:09;;;;;;;0.70;0.50;;;14.40;99.90;;;;;;5114502;28;20879;-58
2023/04/29 01:15:46;;;;;;;0.93;0.50;;;14.30;99.90;;;;;;5115284;28;20424;-59
2023/04/29 01:18:20;;;;;;;0.70;0.50;;;14.30;99.90;;;;;;5115506;28;20492;-57
2023/04/29 01:20:48;;;;;;;0.97;0.50;;;14.30;99.90;;;;;;5114851;28;20511;-57
2023/04/29 01:23:15;;;;;;;0.60;0.50;;;14.30;99.90;;;;;;5114833;28;20420;-57
2023/04/29 01:25:44;;;;;;;0.60;0.50;;;14.30;99.90;;;;;;5115347;28;20869;-58
2023/04/29 01:28:19;;;;;;;0.60;0.40;;;14.30;99.90;;;;;;5114909;28;20427;-57
2023/04/29 01:30:50;;;;;;;0.60;0.40;;;14.30;99.90;;;;;;5115239;28;20419;-58
2023/04/29 01:33:26;;;;;;;0.60;0.47;;;14.30;99.90;;;;;;5114462;28;20420;-57
2023/04/29 01:36:08;;;;;;;0.70;0.50;;;14.30;99.90;;;;;;5113221;28;20856;-57
2023/04/29 01:38:41;;;;;;;0.67;0.40;;;14.30;99.90;;;;;;5113790;28;20515;-58
2023/04/29 01:41:16;;;;;;;0.70;0.50;;;14.30;99.90;;;;;;5114114;28;20420;-57
2023/04/29 01:43:44;;;;;;;0.70;0.50;;;14.30;99.90;;;;;;5113656;28;20515;-58
2023/04/29 01:46:12;;;;;;;0.60;0.45;;;14.30;99.90;;;;;;5112261;28;20848;-58
2023/04/29 01:48:39;;;;;;;0.52;0.40;;;14.30;99.90;;;;;;5113956;28;20835;-58
2023/04/29 01:51:06;;;;;;;1.00;0.40;;;14.30;99.90;;;;;;5114246;28;20424;-58
2023/04/29 01:53:33;;;;;;;1.00;0.40;;;14.40;99.90;;;;;;5114539;28;20749;-57
2023/04/29 01:56:00;;;;;;;0.98;0.40;;;14.40;99.90;;;;;;5114035;28;20916;-58
2023/04/29 01:58:29;;;;;;;0.60;0.50;;;14.30;99.90;;;;;;5114432;28;20416;-56
2023/04/29 02:00:56;;;;;;;0.70;0.40;;;14.40;99.90;;;;;;5114958;28;20549;-58
2023/04/29 02:03:23;;;;;;;0.60;0.40;;;14.30;99.90;;;;;;5114902;28;20480;-58
2023/04/29 02:05:50;;;;;;;0.70;0.40;;;14.30;99.90;;;;;;5114214;28;20433;-58
2023/04/29 02:08:17;;;;;;;0.70;0.50;;;14.20;99.90;;;;;;5114518;28;20705;-56
2023/04/29 02:10:52;;;;;;;0.70;0.40;;;14.30;99.90;;;;;;5114453;28;20569;-58
2023/04/29 02:13:19;;;;;;;0.70;0.40;;;14.20;99.90;;;;;;5115156;28;20431;-58
2023/04/29 02:15:48;;;;;;;0.70;0.50;;;14.30;99.90;;;;;;5112347;28;20443;-58
2023/04/29 02:18:15;;;;;;;0.50;0.40;;;14.20;99.90;;;;;;5113738;28;20408;-57
2023/04/29 02:20:42;;;;;;;1.42;0.50;;;14.10;99.90;;;;;;5114841;28;20442;-57
2023/04/29 02:23:10;;;;;;;0.80;0.50;;;14.10;99.90;;;;;;5113464;28;20416;-56
2023/04/29 02:25:37;;;;;;;0.90;0.60;;;14.20;99.90;;;;;;5112682;28;20939;-57
2023/04/29 02:28:04;;;;;;;0.60;0.40;;;14.10;99.90;;;;;;5114010;28;20420;-57
2023/04/29 02:30:31;;;;;;;0.70;0.40;;;14.20;99.90;;;;;;5114591;28;20831;-59
2023/04/29 02:32:59;;;;;;;0.60;0.40;;;14.30;99.90;;;;;;5113196;28;20439;-57
2023/04/29 02:35:26;;;;;;;0.80;0.50;;;14.20;99.90;;;;;;5114123;28;20535;-57
2023/04/29 02:37:53;;;;;;;0.68;0.40;;;14.20;99.90;;;;;;5113960;28;20416;-58
2023/04/29 02:40:20;;;;;;;0.70;0.40;;;14.10;99.90;;;;;;5113630;28;20735;-58
2023/04/29 02:42:47;;;;;;;0.60;0.50;;;14.10;99.90;;;;;;5113812;28;20436;-59
2023/04/29 02:45:14;;;;;;;0.90;0.50;;;14.00;99.90;;;;;;5113222;28;20432;-58
2023/04/29 02:47:42;;;;;;;0.80;0.50;;;14.00;99.90;;;;;;5111960;28;20436;-56
2023/04/29 02:50:11;;;;;;;1.30;0.50;;;14.00;99.90;;;;;;5113117;28;20900;-59
2023/04/29 02:52:40;;;;;;;1.20;0.40;;;14.00;99.90;;;;;;5112799;28;20423;-59
2023/04/29 02:55:08;;;;;;;0.70;0.47;;;13.90;99.90;;;;;;5113603;28;20917;-59
2023/04/29 02:57:35;;;;;;;0.70;0.50;;;13.90;99.90;;;;;;5113131;28;20499;-58
2023/04/29 03:00:02;;;;;;;0.60;0.50;;;13.90;99.90;;;;;;5114398;28;20770;-58
2023/04/29 03:02:29;;;;;;;0.60;0.50;;;13.90;99.90;;;;;;5114321;28;20448;-58
2023/04/29 03:04:56;;;;;;;0.82;0.50;;;13.90;99.90;;;;;;5111167;28;20507;-58
2023/04/29 03:07:24;;;;;;;0.70;0.50;;;13.80;99.90;;;;;;5111875;28;20435;-59
2023/04/29 03:09:51;;;;;;;0.90;0.50;;;13.80;99.90;;;;;;5117210;28;20923;-58
2023/04/29 03:12:18;;;;;;;1.20;0.60;;;13.80;99.90;;;;;;5117993;28;20849;-59
2023/04/29 03:14:46;;;;;;;1.23;0.50;;;13.80;99.90;;;;;;5105184;28;20441;-59
2023/04/29 03:17:13;;;;;;;0.70;0.50;;;13.80;99.90;;;;;;5098319;28;20726;-58
2023/04/29 03:19:40;;;;;;;0.70;0.50;;;13.80;99.90;;;;;;5097412;28;20899;-59
2023/04/29 03:22:10;;;;;;;0.70;0.50;;;13.90;99.90;;;;;;5097385;28;20854;-58
2023/04/29 03:24:38;;;;;;;1.55;0.50;;;13.90;99.90;;;;;;5114328;28;20435;-59
2023/04/29 03:27:05;;;;;;;0.80;0.57;;;13.90;99.90;;;;;;5117385;28;20432;-59
2023/04/29 03:29:32;;;;;;;0.70;0.50;;;13.90;99.90;;;;;;5117658;28;20424;-58
2023/04/29 03:32:01;;;;;;;0.63;0.40;;;14.00;99.90;;;;;;5116818;28;20434;-58
2023/04/29 03:34:28;;;;;;;1.10;0.50;;;13.90;99.90;;;;;;5116943;28;20477;-58
2023/04/29 03:36:56;;;;;;;1.30;0.52;;;13.80;99.90;;;;;;5117807;28;20942;-58
2023/04/29 03:39:23;;;;;;;1.30;0.60;;;13.80;99.90;;;;;;5117056;28;20871;-57
2023/04/29 03:41:51;;;;;;;0.80;0.50;;;13.60;99.90;;;;;;5117682;28;20489;-58
2023/04/29 03:44:18;;;;;;;0.90;0.60;;;13.60;99.90;;;;;;5116830;28;20855;-58
2023/04/29 03:46:45;;;;;;;0.98;0.60;;;13.40;99.90;;;;;;5116339;28;20508;-59
2023/04/29 03:49:13;;;;;;;1.50;0.50;;;13.40;99.90;;;;;;5117919;28;20424;-58
2023/04/29 03:51:40;;;;;;;0.90;0.60;;;13.30;99.90;;;;;;5116441;28;20436;-58
2023/04/29 03:54:08;;;;;;;1.40;0.60;;;13.20;99.90;;;;;;5117319;28;20424;-58
2023/04/29 03:56:35;;;;;;;0.80;0.60;;;13.10;99.90;;;;;;5117428;28;20444;-58
2023/04/29 03:59:04;;;;;;;1.00;0.60;;;13.10;99.90;;;;;;5116446;28;20835;-59
2023/04/29 04:01:31;;;;;;;1.08;0.60;;;13.00;99.90;;;;;;5116321;28;20440;-58
2023/04/29 04:03:58;;;;;;;2.00;0.70;;;13.00;99.90;;;;;;5116198;28;20416;-58
2023/04/29 04:06:25;;;;;;;0.90;0.60;;;13.00;99.90;;;;;;5117200;28;20882;-58
2023/04/29 04:08:52;;;;;;;1.70;0.70;;;13.00;99.90;;;;;;5116168;28;20937;-59
2023/04/29 04:11:19;;;;;;;1.20;0.70;;;13.00;99.90;;;;;;5116774;28;20881;-58
2023/04/29 04:13:46;;;;;;;0.90;0.70;;;12.90;99.90;;;;;;5116828;28;20412;-59
2023/04/29 04:16:14;;;;;;;1.33;0.60;;;12.90;99.90;;;;;;5116989;28;20493;-59
2023/04/29 04:18:41;;;;;;;1.00;0.70;;;12.80;99.90;;;;;;5117271;28;20874;-59
2023/04/29 04:21:09;;;;;;;1.10;0.70;;;12.80;99.90;;;;;;5116126;28;20430;-59
2023/04/29 04:23:39;;;;;;;0.80;0.60;;;12.70;99.90;;;;;;5116683;28;20420;-58
2023/04/29 04:26:06;;;;;;;1.00;0.70;;;12.70;99.90;;;;;;5117082;28;20450;-58
2023/04/29 04:28:33;;;;;;;0.90;0.70;;;12.60;99.90;;;;;;5116443;28;20420;-58
2023/04/29 04:31:00;;;;;;;1.35;0.60;;;12.60;99.90;;;;;;5116654;28;20432;-58
2023/04/29 04:33:28;;;;;;;0.75;0.60;;;12.50;99.90;;;;;;5115636;28;20477;-59
2023/04/29 04:35:55;;;;;;;0.98;0.70;;;12.50;99.90;;;;;;5115497;28;20687;-58
2023/04/29 04:38:24;;;;;;;0.90;0.70;;;12.50;99.90;;;;;;5116330;28;20461;-59
2023/04/29 04:40:51;;;;;;;0.90;0.70;;;12.50;99.90;;;;;;5116905;28;20476;-58
2023/04/29 04:43:18;;;;;;;0.90;0.70;;;12.50;99.90;;;;;;5116604;28;20417;-59
2023/04/29 04:45:45;;;;;;;0.93;0.70;;;12.40;99.90;;;;;;5116510;28;20435;-59
2023/04/29 04:48:12;;;;;;;1.00;0.60;;;12.40;99.90;;;;;;5115772;28;20428;-57
2023/04/29 04:50:40;;;;;;;1.00;0.70;;;12.40;99.90;;;;;;5116300;28;20839;-59
2023/04/29 04:53:07;;;;;;;1.00;0.70;;;12.40;99.90;;;;;;5115802;28;20493;-58
2023/04/29 04:55:35;;;;;;;1.50;0.80;;;12.40;99.90;;;;;;5115770;28;20782;-59
2023/04/29 04:58:02;;;;;;;1.40;0.70;;;12.40;99.90;;;;;;5115896;28;20423;-58
2023/04/29 05:00:29;;;;;;;0.90;0.70;;;12.40;99.90;;;;;;5115322;28;20859;-58
2023/04/29 05:02:56;;;;;;;2.25;0.70;;;12.40;99.90;;;;;;5108805;28;20427;-59
2023/04/29 05:05:23;;;;;;;1.30;0.80;;;12.50;99.90;;;;;;5116096;28;20440;-58
2023/04/29 05:07:52;;;;;;;0.90;0.75;;;12.50;99.90;;;;;;5115006;28;20424;-58
2023/04/29 05:10:19;;;;;;;1.98;0.90;;;12.50;99.90;;;;;;5112406;28;20844;-57
2023/04/29 05:12:46;;;;;;;1.40;0.70;;;12.50;99.90;;;;;;5115127;28;20419;-55
2023/04/29 05:15:14;;;;;;;1.08;0.70;;;12.70;99.90;;;;;;5106898;28;20432;-57
2023/04/29 05:17:41;;;;;;;1.10;0.70;;;12.80;99.90;;;;;;5107327;28;20814;-58
2023/04/29 05:20:09;;;;;;;0.80;0.60;;;13.00;99.90;;;;;;5112105;28;20773;-58
2023/04/29 05:22:36;;;;;;;1.70;1.00;;;13.30;99.90;;;;;;5108586;28;20467;-58
2023/04/29 05:25:05;;;;;;;1.03;0.70;;;13.40;99.90;;;;;;5112580;28;20424;-57
2023/04/29 05:27:32;;;;;;;0.73;0.60;;;13.60;99.90;;;;;;5106140;28;20439;-57
2023/04/29 05:30:00;;;;;;;0.80;0.60;;;13.70;99.90;;;;;;5106908;28;20429;-58
2023/04/29 05:32:27;;;;;;;1.20;0.70;;;13.90;99.90;;;;;;5106773;28;20428;-56
2023/04/29 05:34:54;;;;;;;1.30;0.70;;;14.00;99.90;;;;;;5102032;28;20842;-57
2023/04/29 05:37:21;;;;;;;1.60;0.70;;;14.00;99.90;;;;;;5110873;28;20781;-56
2023/04/29 05:39:48;;;;;;;1.00;0.70;;;14.10;99.90;;;;;;5093215;28;20422;-58
2023/04/29 05:42:16;;;;;;;1.00;0.70;;;14.10;99.90;;;;;;5100399;28;20416;-63
2023/04/29 05:44:43;;;;;;;0.98;0.60;;;14.20;99.90;;;;;;5100550;28;20426;-58
2023/04/29 05:47:10;;;;;;;1.27;0.70;;;14.30;99.90;;;;;;5107373;28;20428;-58
2023/04/29 05:49:37;;;;;;;1.10;0.70;;;14.30;99.90;;;;;;5096209;28;20418;-58
2023/04/29 05:52:05;;;;;;;1.00;0.70;;;14.40;99.90;;;;;;5113136;28;20907;-59
2023/04/29 05:54:32;;;;;;;0.90;0.70;;;14.60;99.90;;;;;;5113773;28;20417;-59
2023/04/29 05:57:01;;;;;;;1.00;0.70;;;14.40;99.90;;;;;;5099420;28;20421;-58
2023/04/29 05:59:29;;;;;;;1.00;0.80;;;14.60;99.90;;;;;;5109621;28;20428;-57
2023/04/29 06:01:56;;;;;;;1.10;0.80;;;14.70;99.90;;;;;;5097623;28;21295;-59
2023/04/29 06:04:23;;;;;;;1.10;0.80;;;14.60;99.90;;;;;;5105004;28;20471;-58
2023/04/29 06:06:51;;;;;;;1.08;0.98;;;14.60;99.90;;;;;;5104862;28;20494;-58
2023/04/29 06:09:19;;;;;;;1.20;0.83;;;14.60;99.90;;;;;;5102248;28;20420;-59
2023/04/29 06:11:46;;;;;;;1.40;0.90;;;14.50;99.90;;;;;;5091621;28;20430;-58
2023/04/29 06:14:13;;;;;;;1.60;0.80;;;14.70;99.90;;;;;;5098175;28;20415;-56
2023/04/29 06:16:42;;;;;;;1.20;0.90;;;14.90;99.90;;;;;;5101794;28;20461;-57
2023/04/29 06:19:09;;;;;;;1.20;0.90;;;14.90;99.90;;;;;;5106819;28;20416;-57
2023/04/29 06:21:36;;;;;;;1.90;0.90;;;14.80;99.90;;;;;;5095070;28;20450;-54
2023/04/29 06:24:03;;;;;;;1.40;0.90;;;14.60;99.90;;;;;;5106715;28;20418;-58
2023/04/29 06:26:30;;;;;;;1.50;0.80;;;14.50;99.90;;;;;;5103020;28;20431;-55
2023/04/29 06:28:57;;;;;;;1.00;0.80;;;14.50;99.90;;;;;;5105813;28;20509;-57
2023/04/29 06:31:24;;;;;;;3.45;1.60;;;14.60;99.90;;;;;;5100580;28;20431;-57
2023/04/29 06:33:53;;;;;;;4.00;2.90;;;14.60;99.90;;;;;;5108172;28;20410;-57
2023/04/29 06:36:20;;;;;;;0.93;0.80;;;14.80;99.90;;;;;;5102264;28;20459;-56
2023/04/29 06:38:47;;;;;;;1.20;0.93;;;14.80;99.90;;;;;;5099219;28;20887;-56
2023/04/29 06:41:14;;;;;;;1.30;0.95;;;14.60;99.90;;;;;;5108381;28;20781;-57
2023/04/29 06:43:42;;;;;;;1.50;0.85;;;14.60;99.90;;;;;;5097023;28;20799;-58
2023/04/29 06:46:10;;;;;;;1.00;0.80;;;14.70;99.90;;;;;;5105556;28;20895;-56
2023/04/29 06:48:37;;;;;;;1.48;0.90;;;15.00;99.90;;;;;;5106512;28;20430;-57
2023/04/29 06:51:05;;;;;;;1.10;0.80;;;15.10;99.90;;;;;;5106012;28;20730;-58
2023/04/29 06:53:32;;;;;;;0.90;0.80;;;15.10;99.90;;;;;;5113167;28;20420;-58
2023/04/29 06:55:59;;;;;;;0.90;0.80;;;15.20;99.90;;;;;;5102245;28;20431;-55
2023/04/29 06:58:27;;;;;;;1.08;0.80;;;15.10;99.90;;;;;;5109299;28;20434;-57
2023/04/29 07:00:54;;;;;;;1.10;0.90;;;15.00;99.90;;;;;;5115946;28;20419;-56
2023/04/29 07:03:21;;;;;;;0.80;0.70;;;14.90;99.90;;;;;;5099272;28;20505;-58
2023/04/29 07:05:48;;;;;;;0.80;0.70;;;14.80;99.90;;;;;;5100354;28;20432;-57
2023/04/29 07:08:17;;;;;;;1.00;0.70;;;14.80;99.90;;;;;;5109274;28;20429;-57
2023/04/29 07:10:44;;;;;;;1.20;0.70;;;14.70;99.90;;;;;;5112799;28;20859;-58
2023/04/29 07:13:10;;;;;;;0.90;0.70;;;14.70;99.90;;;;;;5113734;28;20881;-58
2023/04/29 07:15:38;;;;;;;0.90;0.70;;;14.80;99.90;;;;;;5098974;28;20475;-56
2023/04/29 07:18:05;;;;;;;0.80;0.70;;;14.90;99.90;;;;;;5104726;28;20843;-58
2023/04/29 07:20:32;;;;;;;0.80;0.60;;;14.90;99.90;;;;;;5105410;28;20418;-59
2023/04/29 07:22:59;;;;;;;0.80;0.60;;;14.90;99.90;;;;;;5107833;28;20476;-58
2023/04/29 07:25:28;;;;;;;0.80;0.60;;;15.00;99.90;;;;;;5096302;28;20730;-57
2023/04/29 07:27:55;;;;;;;1.33;0.60;;;15.00;99.90;;;;;;5108643;28;20425;-58
2023/04/29 07:30:23;;;;;;;0.80;0.50;;;14.90;99.90;;;;;;5101222;28;20477;-57
2023/04/29 07:32:50;;;;;;;0.60;0.50;;;14.90;99.90;;;;;;5100898;28;20422;-58
2023/04/29 07:35:18;;;;;;;0.70;0.50;;;15.10;99.90;;;;;;5110335;28;20420;-57
2023/04/29 07:37:45;;;;;;;0.60;0.50;;;15.20;99.90;;;;;;5099268;28;20499;-58
2023/04/29 07:40:13;;;;;;;1.20;0.77;;;15.20;99.90;;;;;;5108917;28;20430;-58
2023/04/29 07:42:41;;;;;;;0.70;0.60;;;15.30;99.90;;;;;;5106334;28;20903;-57
2023/04/29 07:45:09;;;;;;;0.80;0.50;;;15.40;99.90;;;;;;5100839;28;20434;-58
2023/04/29 07:47:36;;;;;;;0.70;0.50;;;15.50;99.90;;;;;;5112882;28;20985;-59
2023/04/29 07:50:04;;;;;;;0.60;0.50;;;15.50;99.90;;;;;;5103762;28;21023;-54
2023/04/29 07:52:31;;;;;;;1.10;0.50;;;15.60;99.90;;;;;;5104038;28;20430;-57
2023/04/29 07:54:58;;;;;;;0.60;0.43;;;15.60;99.90;;;;;;5107071;28;20436;-58
2023/04/29 07:57:28;;;;;;;0.70;0.50;;;15.60;99.90;;;;;;5103618;28;21569;-59
2023/04/29 07:59:56;;;;;;;1.15;0.52;;;15.60;99.90;;;;;;5115529;28;20427;-58
2023/04/29 08:02:23;;;;;;;0.63;0.40;;;15.70;99.90;;;;;;5112990;28;20428;-58
2023/04/29 08:04:50;;;;;;;1.10;0.50;;;15.90;99.90;;;;;;5109468;28;20424;-57
2023/04/29 08:07:17;;;;;;;0.60;0.50;;;15.90;99.90;;;;;;5112164;28;20454;-57
2023/04/29 08:09:44;;;;;;;0.65;0.50;;;15.70;99.90;;;;;;5115564;28;20746;-58
2023/04/29 08:12:11;;;;;;;0.80;0.50;;;15.60;99.90;;;;;;5107203;28;20429;-58
2023/04/29 08:14:38;;;;;;;1.33;0.57;;;15.50;99.90;;;;;;5114107;28;20490;-58
2023/04/29 08:17:07;;;;;;;0.70;0.50;;;15.80;99.90;;;;;;5113942;28;20427;-58
2023/04/29 08:19:34;;;;;;;0.75;0.60;;;15.90;99.90;;;;;;5113014;28;20416;-58
2023/04/29 08:22:03;;;;;;;0.75;0.60;;;16.00;99.90;;;;;;5111257;28;20412;-58
2023/04/29 08:24:32;;;;;;;1.30;0.60;;;16.00;99.90;;;;;;5104408;28;20431;-58
2023/04/29 08:26:59;;;;;;;0.90;0.50;;;16.10;99.90;;;;;;5115367;28;20447;-58
2023/04/29 08:29:26;;;;;;;0.68;0.50;;;16.20;99.90;;;;;;5101826;28;21061;-59
2023/04/29 08:31:53;;;;;;;0.70;0.50;;;16.30;99.90;;;;;;5104063;28;20510;-57
2023/04/29 08:34:21;;;;;;;0.85;0.50;;;16.40;99.90;;;;;;5102753;28;20436;-58
2023/04/29 08:36:48;;;;;;;1.40;0.57;;;16.30;99.90;;;;;;5110229;28;20416;-58
2023/04/29 08:39:16;;;;;;;1.10;0.50;;;16.00;99.90;;;;;;5112864;28;20477;-59
2023/04/29 08:41:48;;;;;;;0.60;0.50;;;15.80;99.90;;;;;;5095668;28;20430;-58
2023/04/29 08:44:16;;;;;;;0.70;0.50;;;15.70;99.90;;;;;;5099451;28;20506;-59
2023/04/29 08:46:44;;;;;;;1.50;0.50;;;15.70;99.90;;;;;;5107878;28;20447;-59
2023/04/29 08:49:13;;;;;;;0.85;0.60;;;15.70;99.90;;;;;;5098462;28;20432;-58
2023/04/29 08:51:41;;;;;;;0.80;0.60;;;15.40;99.90;;;;;;5111084;28;20432;-58
2023/04/29 08:54:08;;;;;;;13.57;11.90;;;15.20;99.90;;;;;;5107944;28;20445;-58
2023/04/29 08:56:36;;;;;;;9.02;7.03;;;15.40;99.90;;;;;;5101005;28;20426;-58
2023/04/29 08:59:05;;;;;;;2.60;2.40;;;15.60;99.90;;;;;;5110087;28;20468;-58
2023/04/29 09:01:36;;;;;;;2.33;1.90;;;15.90;99.90;;;;;;5105050;28;20852;-58
2023/04/29 09:04:11;;;;;;;1.40;0.80;;;16.00;99.90;;;;;;5101146;28;20793;-57
2023/04/29 09:06:38;;;;;;;1.00;0.80;;;16.10;99.90;;;;;;5102914;28;20434;-58
2023/04/29 09:09:07;;;;;;;0.90;0.70;;;16.20;99.90;;;;;;5098386;28;20431;-59
2023/04/29 09:11:35;;;;;;;0.90;0.70;;;16.00;99.90;;;;;;5097594;28;20438;-58
2023/04/29 09:14:03;;;;;;;1.00;0.70;;;15.70;99.90;;;;;;5108163;28;20529;-58
2023/04/29 09:16:31;;;;;;;0.70;0.60;;;15.80;99.90;;;;;;5103254;28;20514;-59
2023/04/29 09:18:58;;;;;;;1.10;0.70;;;15.90;99.90;;;;;;5107862;27;20485;-59
2023/04/29 09:21:27;;;;;;;0.70;0.60;;;16.00;99.90;;;;;;5109294;28;20436;-60
2023/04/29 09:23:56;;;;;;;0.80;0.70;;;16.20;99.90;;;;;;5103324;28;20523;-59
2023/04/29 09:26:24;;;;;;;0.85;0.70;;;16.30;99.90;;;;;;5105106;28;20432;-59
2023/04/29 09:29:08;;;;;;;0.80;0.70;;;16.40;99.90;;;;;;5104742;28;20436;-59
2023/04/29 09:31:38;;;;;;;0.80;0.70;;;16.50;99.90;;;;;;5111420;28;20432;-58
2023/04/29 09:34:05;;;;;;;0.90;0.70;;;16.70;99.90;;;;;;5108288;28;20458;-58
2023/04/29 09:36:40;;;;;;;0.80;0.70;;;16.60;99.90;;;;;;5107335;28;20437;-58
2023/04/29 09:39:11;;;;;;;1.00;0.80;;;16.60;99.90;;;;;;5103291;28;20437;-59
2023/04/29 09:41:42;;;;;;;1.00;0.70;;;16.30;99.90;;;;;;5102665;28;20812;-60
2023/04/29 09:44:10;;;;;;;0.80;0.60;;;16.30;99.90;;;;;;5097519;28;20437;-59
2023/04/29 09:46:37;;;;;;;1.30;0.50;;;16.50;99.90;;;;;;5098325;28;20436;-60
2023/04/29 09:49:22;;;;;;;0.95;0.60;;;16.70;99.90;;;;;;5106734;28;20428;-59
2023/04/29 09:51:54;;;;;;;0.80;0.60;;;16.90;99.90;;;;;;5108999;28;20463;-59
2023/04/29 09:54:22;;;;;;;0.80;0.60;;;16.80;99.90;;;;;;5103571;28;20873;-59
2023/04/29 09:56:52;;;;;;;0.80;0.60;;;16.80;99.90;;;;;;5102972;28;20508;-59
2023/04/29 09:59:19;;;;;;;1.08;0.60;;;16.70;99.90;;;;;;5096882;28;20841;-59
2023/04/29 10:01:49;;;;;;;0.80;0.60;;;16.70;99.90;;;;;;5107534;28;20534;-59
2023/04/29 10:04:18;;;;;;;1.08;0.70;;;16.70;99.90;;;;;;5096570;28;20408;-59
2023/04/29 10:06:45;;;;;;;1.20;0.70;;;17.00;99.90;;;;;;5101658;28;20481;-60
2023/04/29 10:09:17;;;;;;;0.80;0.60;;;17.20;99.90;;;;;;5098247;28;20430;-60
2023/04/29 10:11:45;;;;;;;1.55;0.60;;;17.30;99.90;;;;;;5102216;28;20998;-59
2023/04/29 10:14:16;;;;;;;0.70;0.50;;;17.60;99.90;;;;;;5108619;28;20424;-59
2023/04/29 10:16:47;;;;;;;0.90;0.50;;;17.70;99.90;;;;;;5102408;28;20432;-58
2023/04/29 10:19:23;;;;;;;0.70;0.50;;;18.00;99.90;;;;;;5102570;28;20444;-58
2023/04/29 10:21:50;;;;;;;0.77;0.50;;;18.30;99.90;;;;;;5107629;28;20786;-60
2023/04/29 10:24:19;;;;;;;1.00;0.50;;;18.50;99.90;;;;;;5104963;28;20458;-59
2023/04/29 10:26:48;;;;;;;0.60;0.40;;;18.60;99.90;;;;;;5102917;27;20554;-58
2023/04/29 10:29:17;;;;;;;0.60;0.50;;;18.10;99.90;;;;;;5095932;28;20774;-59
2023/04/29 10:31:46;;;;;;;1.30;0.50;;;17.90;99.90;;;;;;5102349;28;20440;-59
2023/04/29 10:34:16;;;;;;;1.08;0.60;;;18.00;99.90;;;;;;5098998;28;20432;-58
2023/04/29 10:36:44;;;;;;;0.70;0.50;;;18.20;99.90;;;;;;5102766;28;20432;-59
2023/04/29 10:39:19;;;;;;;0.53;0.50;;;18.30;99.90;;;;;;5101740;28;20477;-59
2023/04/29 10:41:47;;;;;;;0.80;0.50;;;18.40;99.90;;;;;;5096947;28;20428;-59
2023/04/29 10:44:16;;;;;;;0.73;0.60;;;18.40;99.90;;;;;;5107454;28;20431;-58
2023/04/29 10:46:43;;;;;;;0.97;0.60;;;18.20;99.90;;;;;;5104610;28;20521;-59
2023/04/29 10:49:11;;;;;;;0.80;0.57;;;18.10;99.90;;;;;;5101860;28;21051;-59
2023/04/29 10:51:41;;;;;;;1.00;0.50;;;18.00;99.90;;;;;;5100948;28;21327;-59
2023/04/29 10:54:12;;;;;;;0.77;0.50;;;18.00;99.90;;;;;;5105879;28;20432;-59
2023/04/29 10:56:43;;;;;;;0.80;0.50;;;18.10;99.90;;;;;;5108203;28;20436;-59
2023/04/29 10:59:13;;;;;;;0.75;0.50;;;18.40;99.90;;;;;;5100748;28;21394;-59
2023/04/29 11:01:46;;;;;;;0.80;0.57;;;18.70;99.90;;;;;;5098414;28;20444;-59
2023/04/29 11:04:13;;;;;;;0.98;0.60;;;18.30;99.90;;;;;;5102914;28;20483;-59
2023/04/29 11:06:43;;;;;;;0.73;0.60;;;18.10;99.90;;;;;;5102974;28;20428;-59
2023/04/29 11:09:26;;;;;;;1.00;0.50;;;18.30;99.90;;;;;;5110834;28;20434;-59
2023/04/29 11:12:01;;;;;;;1.10;0.50;;;18.50;99.90;;;;;;5095353;28;20811;-58
2023/04/29 11:14:32;;;;;;;0.70;0.50;;;18.50;99.90;;;;;;5101458;28;20489;-58
2023/04/29 11:17:03;;;;;;;0.80;0.60;;;18.50;99.90;;;;;;5096656;28;20429;-59
2023/04/29 11:19:35;;;;;;;0.73;0.50;;;18.40;99.90;;;;;;5096970;28;20481;-60
2023/04/29 11:22:26;;;;;;;0.60;0.50;;;18.30;99.90;;;;;;5107714;28;20424;-59
2023/04/29 11:24:55;;;;;;;0.90;0.50;;;18.10;99.90;;;;;;5091946;28;20489;-58
2023/04/29 11:27:25;;;;;;;1.10;0.50;;;18.00;99.90;;;;;;5110130;28;20462;-59
2023/04/29 11:29:57;;;;;;;0.60;0.50;;;18.10;99.90;;;;;;5114679;27;20432;-59
2023/04/29 11:32:25;;;;;;;1.10;0.50;;;18.10;99.90;;;;;;5093823;28;20425;-59
2023/04/29 11:34:53;;;;;;;1.00;0.45;;;18.10;99.90;;;;;;5097368;27;20507;-59
2023/04/29 11:37:25;;;;;;;0.80;0.50;;;18.40;99.90;;;;;;5113978;28;20424;-60
2023/04/29 11:39:59;;;;;;;0.60;0.40;;;18.60;99.90;;;;;;5109959;28;20543;-59
2023/04/29 11:42:27;;;;;;;0.90;0.43;;;18.70;99.90;;;;;;5113005;28;20432;-58
2023/04/29 11:44:55;;;;;;;0.70;0.45;;;18.70;99.90;;;;;;5105903;28;20436;-59
2023/04/29 11:47:29;;;;;;;0.90;0.50;;;18.70;99.90;;;;;;5105297;28;20509;-59
2023/04/29 11:50:03;;;;;;;0.70;0.47;;;19.00;99.90;;;;;;5099216;28;20433;-58
2023/04/29 11:52:31;;;;;;;0.80;0.50;;;19.30;99.90;;;;;;5114089;28;20499;-59
2023/04/29 11:54:58;;;;;;;1.00;0.50;;;19.40;99.90;;;;;;5104555;28;20435;-59
2023/04/29 11:57:26;;;;;;;0.90;0.70;;;19.10;99.90;;;;;;5098024;28;20440;-58
2023/04/29 11:59:54;;;;;;;1.00;0.70;;;19.10;99.90;;;;;;5113146;28;20459;-59
2023/04/29 12:02:22;;;;;;;1.50;0.80;;;19.50;99.90;;;;;;5114438;28;20469;-62
2023/04/29 12:04:50;;;;;;;1.10;0.70;;;19.70;99.90;;;;;;5109275;28;20496;-59
2023/04/29 12:07:17;;;;;;;0.80;0.60;;;19.60;99.90;;;;;;5104348;28;20950;-59
2023/04/29 12:09:46;;;;;;;1.00;0.80;;;19.40;99.90;;;;;;5111754;28;20835;-59
2023/04/29 12:12:14;;;;;;;1.10;0.70;;;19.50;99.90;;;;;;5112715;28;20420;-58
2023/04/29 12:14:42;;;;;;;1.00;0.80;;;20.00;99.90;;;;;;5109343;28;20940;-59
2023/04/29 12:17:09;;;;;;;1.00;0.80;;;19.80;99.90;;;;;;5114212;28;20711;-59
2023/04/29 12:19:38;;;;;;;1.77;0.80;;;19.70;99.90;;;;;;5107194;28;20749;-58
2023/04/29 12:22:07;;;;;;;1.10;0.85;;;19.70;99.90;;;;;;5112830;28;20424;-59
2023/04/29 12:24:36;;;;;;;1.98;0.90;;;20.20;99.90;;;;;;5112049;28;20435;-59
2023/04/29 12:27:04;;;;;;;1.58;0.90;;;20.10;99.90;;;;;;5104241;28;20426;-59
2023/04/29 12:29:32;;;;;;;1.13;0.70;;;20.00;99.90;;;;;;5096118;28;20532;-60
2023/04/29 12:31:59;;;;;;;1.00;0.80;;;20.10;99.90;;;;;;5106614;28;22176;-59
2023/04/29 12:34:26;;;;;;;1.45;1.00;;;20.30;99.90;;;;;;5107857;28;21031;-57
2023/04/29 12:36:56;;;;;;;1.67;0.90;;;20.20;99.90;;;;;;5106272;28;20461;-58
2023/04/29 12:39:25;;;;;;;1.40;1.00;;;19.90;99.90;;;;;;5101476;28;20416;-58
2023/04/29 12:41:57;;;;;;;1.10;0.90;;;19.70;99.90;;;;;;5100971;28;20485;-59
2023/04/29 12:44:24;;;;;;;1.33;0.90;;;19.80;99.90;;;;;;5101822;28;20432;-58
2023/04/29 12:46:54;;;;;;;1.10;0.90;;;19.80;99.90;;;;;;5104700;28;20480;-57
2023/04/29 12:49:24;;;;;;;1.30;1.10;;;19.90;99.90;;;;;;5106050;28;20555;-57
2023/04/29 12:51:51;;;;;;;2.20;1.00;;;19.40;99.90;;;;;;5105968;28;20439;-59
2023/04/29 12:54:18;;;;;;;1.20;0.90;;;19.40;99.90;;;;;;5104926;28;20437;-59